createdAt,value
2023-05-14T00:00:11.561Z,13.79
2023-05-14T00:02:39.744Z,13.81
2023-05-14T00:05:08.376Z,13.84
2023-05-14T00:07:36.357Z,13.90
2023-05-14T00:10:04.316Z,13.93
2023-05-14T00:12:33.334Z,13.91
2023-05-14T00:15:01.317Z,13.93
2023-05-14T00:17:30.728Z,13.86
2023-05-14T00:19:59.521Z,13.93
2023-05-14T00:22:27.391Z,13.78
2023-05-14T00:24:55.305Z,13.80
2023-05-14T00:27:23.247Z,13.80
2023-05-14T00:29:51.191Z,13.87
2023-05-14T00:32:19.099Z,13.82
2023-05-14T00:34:48.428Z,13.71
2023-05-14T00:37:16.314Z,13.82
2023-05-14T00:39:44.369Z,13.81
2023-05-14T00:42:12.274Z,13.79
2023-05-14T00:44:40.227Z,13.80
2023-05-14T00:47:09.339Z,13.83
2023-05-14T00:49:40.002Z,13.78
2023-05-14T00:52:09.679Z,13.76
2023-05-14T00:54:37.761Z,13.64
2023-05-14T00:57:07.477Z,13.64
2023-05-14T00:59:35.993Z,13.62
2023-05-14T01:02:03.951Z,13.70
2023-05-14T01:04:31.887Z,13.69
2023-05-14T01:07:10.685Z,13.52
2023-05-14T01:09:45.737Z,13.59
2023-05-14T01:12:20.486Z,13.51
2023-05-14T01:14:56.736Z,13.61
2023-05-14T01:17:29.578Z,13.67
2023-05-14T01:19:58.029Z,13.66
2023-05-14T01:22:27.430Z,13.55
2023-05-14T01:24:55.880Z,13.66
2023-05-14T01:27:30.302Z,13.53
2023-05-14T01:30:04.315Z,13.58
2023-05-14T01:32:34.041Z,13.58
2023-05-14T01:35:02.929Z,13.57
2023-05-14T01:37:33.806Z,13.46
2023-05-14T01:40:02.502Z,13.50
2023-05-14T01:42:30.826Z,13.40
2023-05-14T01:44:59.205Z,13.39
2023-05-14T01:47:27.122Z,13.39
2023-05-14T01:49:55.119Z,13.42
2023-05-14T01:52:23.028Z,13.35
2023-05-14T01:54:52.532Z,13.40
2023-05-14T01:57:21.525Z,13.32
2023-05-14T01:59:49.445Z,13.34
2023-05-14T02:02:17.408Z,13.33
2023-05-14T02:04:45.272Z,13.18
2023-05-14T02:07:13.184Z,13.15
2023-05-14T02:09:41.235Z,13.08
2023-05-14T02:12:11.246Z,12.89
2023-05-14T02:14:39.317Z,12.91
2023-05-14T02:17:07.277Z,12.82
2023-05-14T02:19:35.177Z,12.72
2023-05-14T02:22:03.301Z,12.66
2023-05-14T02:24:31.124Z,12.64
2023-05-14T02:27:01.148Z,12.53
2023-05-14T02:29:30.598Z,12.51
2023-05-14T02:31:58.544Z,12.50
2023-05-14T02:34:26.639Z,12.30
2023-05-14T02:36:54.536Z,12.55
2023-05-14T02:39:22.467Z,12.52
2023-05-14T02:41:50.568Z,12.47
2023-05-14T02:44:18.606Z,12.39
2023-05-14T02:46:48.071Z,12.21
2023-05-14T02:49:15.985Z,12.37
2023-05-14T02:51:44.022Z,12.41
2023-05-14T02:54:11.922Z,12.34
2023-05-14T02:56:39.832Z,12.39
2023-05-14T02:59:07.991Z,12.41
2023-05-14T03:01:36.065Z,12.43
2023-05-14T03:04:05.956Z,12.41
2023-05-14T03:06:33.888Z,12.42
2023-05-14T03:09:01.728Z,12.41
2023-05-14T03:11:29.626Z,12.46
2023-05-14T03:13:57.528Z,12.42
2023-05-14T03:16:25.539Z,12.51
2023-05-14T03:18:53.524Z,12.51
2023-05-14T03:21:22.969Z,12.55
2023-05-14T03:23:50.858Z,12.53
2023-05-14T03:26:18.784Z,12.50
2023-05-14T03:28:49.232Z,12.38
2023-05-14T03:31:17.179Z,12.27
2023-05-14T03:33:45.487Z,12.20
2023-05-14T03:36:13.386Z,12.11
2023-05-14T03:38:42.629Z,12.12
2023-05-14T03:41:10.636Z,12.05
2023-05-14T03:43:38.514Z,11.93
2023-05-14T03:46:06.450Z,11.92
2023-05-14T03:48:34.436Z,11.93
2023-05-14T03:51:02.553Z,11.89
2023-05-14T03:53:30.611Z,11.86
2023-05-14T03:55:59.987Z,11.83
2023-05-14T03:58:27.891Z,11.78
2023-05-14T04:00:55.767Z,11.82
2023-05-14T04:03:23.843Z,11.78
2023-05-14T04:05:52.489Z,11.76
2023-05-14T04:08:20.477Z,11.83
2023-05-14T04:10:48.340Z,11.81
2023-05-14T04:13:17.620Z,11.71
2023-05-14T04:15:45.571Z,11.82
2023-05-14T04:18:13.615Z,11.92
2023-05-14T04:20:41.694Z,11.85
2023-05-14T04:23:09.650Z,11.85
2023-05-14T04:25:37.660Z,11.92
2023-05-14T04:28:06.031Z,11.90
2023-05-14T04:30:35.637Z,11.86
2023-05-14T04:33:04.246Z,11.87
2023-05-14T04:35:32.329Z,11.93
2023-05-14T04:38:00.220Z,11.92
2023-05-14T04:40:28.184Z,11.88
2023-05-14T04:42:56.139Z,11.92
2023-05-14T04:45:24.204Z,11.95
2023-05-14T04:47:53.555Z,11.87
2023-05-14T04:50:22.065Z,11.86
2023-05-14T04:52:50.103Z,11.83
2023-05-14T04:55:18.226Z,11.83
2023-05-14T04:57:46.101Z,11.70
2023-05-14T05:00:14.881Z,11.56
2023-05-14T05:02:42.831Z,11.55
2023-05-14T05:05:12.439Z,11.49
2023-05-14T05:07:40.360Z,11.50
2023-05-14T05:10:09.879Z,11.26
2023-05-14T05:12:37.858Z,11.24
2023-05-14T05:15:06.541Z,11.23
2023-05-14T05:17:34.562Z,11.26
2023-05-14T05:20:02.691Z,11.23
2023-05-14T05:22:32.192Z,11.22
2023-05-14T05:25:00.222Z,11.22
2023-05-14T05:27:28.391Z,11.04
2023-05-14T05:29:56.430Z,11.05
2023-05-14T05:32:24.729Z,11.06
2023-05-14T05:34:53.045Z,11.09
2023-05-14T05:37:21.056Z,11.05
2023-05-14T05:39:50.333Z,10.90
2023-05-14T05:42:18.288Z,10.82
2023-05-14T05:44:46.265Z,10.58
2023-05-14T05:47:14.143Z,10.65
2023-05-14T05:49:44.134Z,10.56
2023-05-14T05:52:12.081Z,10.58
2023-05-14T05:54:40.876Z,10.54
2023-05-14T05:57:10.234Z,10.40
2023-05-14T05:59:38.212Z,10.34
2023-05-14T06:02:06.465Z,10.30
2023-05-14T06:04:34.388Z,10.17
2023-05-14T06:07:02.334Z,10.12
2023-05-14T06:09:30.336Z,10.04
2023-05-14T06:11:58.296Z,10.04
2023-05-14T06:14:27.723Z,9.95
2023-05-14T06:16:55.855Z,10.15
2023-05-14T06:19:24.350Z,10.15
2023-05-14T06:21:52.305Z,10.17
2023-05-14T06:24:21.344Z,10.21
2023-05-14T06:26:49.531Z,10.21
2023-05-14T06:29:17.509Z,10.18
2023-05-14T06:31:46.845Z,10.20
2023-05-14T06:34:15.019Z,9.96
2023-05-14T06:36:43.055Z,10.13
2023-05-14T06:39:11.045Z,10.18
2023-05-14T06:41:38.987Z,10.06
2023-05-14T06:44:06.899Z,10.05
2023-05-14T06:46:34.877Z,10.23
2023-05-14T06:49:04.313Z,10.17
2023-05-14T06:51:32.649Z,10.20
2023-05-14T06:54:00.629Z,10.28
2023-05-14T06:56:28.637Z,10.30
2023-05-14T06:58:56.788Z,10.40
2023-05-14T07:01:24.783Z,10.36
2023-05-14T07:03:52.946Z,10.50
2023-05-14T07:06:25.916Z,10.68
2023-05-14T07:08:53.918Z,10.76
2023-05-14T07:11:22.189Z,10.94
2023-05-14T07:13:50.441Z,11.02
2023-05-14T07:16:18.460Z,11.06
2023-05-14T07:18:46.738Z,11.11
2023-05-14T07:21:14.660Z,10.99
2023-05-14T07:23:43.978Z,10.93
2023-05-14T07:26:13.421Z,10.89
2023-05-14T07:28:41.402Z,10.84
2023-05-14T07:31:09.853Z,10.92
2023-05-14T07:33:37.898Z,10.88
2023-05-14T07:36:06.538Z,10.81
2023-05-14T07:38:34.599Z,10.79
2023-05-14T07:41:04.027Z,10.85
2023-05-14T07:43:32.375Z,10.87
2023-05-14T07:46:00.438Z,10.88
2023-05-14T07:51:12.086Z,10.98
2023-05-14T07:53:40.187Z,11.02
2023-05-14T07:56:10.255Z,11.04
2023-05-14T07:58:39.160Z,10.86
2023-05-14T08:01:09.264Z,10.86
2023-05-14T08:03:37.588Z,11.04
2023-05-14T08:06:05.951Z,11.05
2023-05-14T08:08:33.994Z,10.93
2023-05-14T08:11:02.082Z,10.94
2023-05-14T08:13:34.629Z,10.94
2023-05-14T08:16:02.976Z,10.91
2023-05-14T08:18:31.069Z,10.75
2023-05-14T08:20:59.054Z,11.04
2023-05-14T08:23:27.222Z,11.14
2023-05-14T08:25:55.188Z,11.10
2023-05-14T08:28:23.220Z,11.10
2023-05-14T08:30:52.720Z,11.17
2023-05-14T08:33:20.752Z,11.20
2023-05-14T08:35:48.769Z,11.24
2023-05-14T08:38:16.775Z,11.34
2023-05-14T08:40:49.794Z,11.41
2023-05-14T08:43:27.081Z,11.28
2023-05-14T08:46:01.311Z,11.49
2023-05-14T08:48:34.445Z,11.47
2023-05-14T08:51:03.307Z,11.54
2023-05-14T08:53:32.370Z,11.51
2023-05-14T08:56:02.576Z,11.35
2023-05-14T08:58:30.574Z,11.50
2023-05-14T09:01:00.397Z,11.19
2023-05-14T09:03:28.992Z,11.21
2023-05-14T09:05:59.363Z,11.11
2023-05-14T09:08:28.225Z,11.22
2023-05-14T09:10:56.186Z,11.27
2023-05-14T09:13:25.015Z,11.38
2023-05-14T09:15:57.486Z,11.55
2023-05-14T09:18:26.962Z,11.57
2023-05-14T09:20:55.153Z,11.76
2023-05-14T09:23:23.187Z,11.72
2023-05-14T09:25:51.347Z,11.76
2023-05-14T09:28:21.296Z,11.61
2023-05-14T09:30:52.254Z,11.68
2023-05-14T09:33:29.068Z,11.55
2023-05-14T09:36:00.462Z,11.45
2023-05-14T09:38:31.904Z,11.51
2023-05-14T09:41:00.840Z,11.20
2023-05-14T09:43:28.841Z,11.40
2023-05-14T09:45:56.854Z,11.23
2023-05-14T09:48:24.878Z,11.31
2023-05-14T09:50:54.383Z,11.31
2023-05-14T09:53:22.693Z,11.20
2023-05-14T09:55:50.880Z,11.38
2023-05-14T09:58:18.966Z,11.43
2023-05-14T10:00:47.968Z,11.36
2023-05-14T10:03:19.631Z,11.54
2023-05-14T10:05:51.159Z,11.57
2023-05-14T10:08:25.480Z,11.52
2023-05-14T10:10:54.981Z,11.27
2023-05-14T10:13:26.170Z,11.42
2023-05-14T10:16:02.276Z,11.39
2023-05-14T10:18:34.362Z,11.31
2023-05-14T10:21:06.812Z,11.37
2023-05-14T10:23:38.193Z,11.20
2023-05-14T10:26:06.989Z,11.23
2023-05-14T10:28:35.405Z,11.20
2023-05-14T10:31:03.505Z,11.24
2023-05-14T10:33:31.634Z,11.13
2023-05-14T10:36:03.333Z,11.18
2023-05-14T10:38:33.698Z,11.07
2023-05-14T10:41:04.252Z,11.10
2023-05-14T10:43:37.359Z,11.14
2023-05-14T10:46:06.026Z,11.26
2023-05-14T10:48:35.158Z,11.21
2023-05-14T10:51:03.420Z,11.33
2023-05-14T10:53:36.160Z,11.34
2023-05-14T10:56:13.537Z,11.46
2023-05-14T10:58:43.842Z,11.32
2023-05-14T11:01:13.754Z,11.52
2023-05-14T11:03:43.859Z,11.50
2023-05-14T11:06:13.215Z,11.67
2023-05-14T11:08:41.957Z,11.75
2023-05-14T11:11:11.869Z,11.79
2023-05-14T11:13:42.290Z,11.70
2023-05-14T11:18:44.500Z,11.78
2023-05-14T11:21:13.257Z,11.85
2023-05-14T11:23:41.223Z,11.85
2023-05-14T11:26:09.266Z,11.73
2023-05-14T11:28:39.997Z,11.81
2023-05-14T11:31:08.035Z,11.54
2023-05-14T11:33:37.200Z,11.57
2023-05-14T11:36:06.224Z,11.84
2023-05-14T11:38:34.304Z,11.76
2023-05-14T11:41:04.411Z,11.72
2023-05-14T11:43:32.366Z,11.81
2023-05-14T11:46:01.668Z,11.81
2023-05-14T11:48:29.668Z,11.85
2023-05-14T11:50:57.656Z,12.15
2023-05-14T11:53:28.539Z,12.05
2023-05-14T11:55:57.961Z,12.22
2023-05-14T11:58:26.379Z,12.27
2023-05-14T12:00:57.093Z,12.43
2023-05-14T12:03:30.217Z,12.39
2023-05-14T12:05:59.343Z,12.63
2023-05-14T12:08:29.054Z,12.73
2023-05-14T12:10:59.508Z,12.86
2023-05-14T12:13:28.400Z,13.23
2023-05-14T12:15:57.688Z,13.17
2023-05-14T12:18:29.665Z,13.30
2023-05-14T12:21:03.091Z,13.30
2023-05-14T12:23:32.499Z,13.42
2023-05-14T12:26:04.022Z,13.46
2023-05-14T12:28:32.780Z,13.57
2023-05-14T12:31:01.422Z,13.57
2023-05-14T12:33:33.363Z,13.62
2023-05-14T12:36:13.506Z,13.41
2023-05-14T12:38:48.431Z,13.09
2023-05-14T12:41:17.861Z,13.01
2023-05-14T12:43:48.832Z,12.99
2023-05-14T12:46:19.977Z,13.09
2023-05-14T12:48:52.380Z,13.02
2023-05-14T12:51:21.766Z,13.03
2023-05-14T12:53:51.670Z,12.85
2023-05-14T12:56:20.186Z,12.88
2023-05-14T12:58:49.311Z,12.74
2023-05-14T13:01:20.155Z,12.72
2023-05-14T13:03:49.522Z,12.72
2023-05-14T13:06:18.205Z,12.59
2023-05-14T13:08:46.344Z,12.61
2023-05-14T13:11:14.735Z,12.43
2023-05-14T13:13:42.756Z,12.49
2023-05-14T13:16:17.182Z,12.36
2023-05-14T13:18:45.897Z,12.46
2023-05-14T13:21:16.097Z,12.43
2023-05-14T13:23:47.176Z,12.34
2023-05-14T13:26:16.008Z,12.22
2023-05-14T13:28:44.992Z,12.48
2023-05-14T13:31:15.233Z,12.45
2023-05-14T13:33:44.991Z,12.33
2023-05-14T13:36:18.562Z,12.40
2023-05-14T13:38:48.229Z,12.19
2023-05-14T13:41:19.261Z,12.37
2023-05-14T13:43:48.452Z,12.35
2023-05-14T13:46:19.576Z,12.13
2023-05-14T13:48:51.335Z,12.04
2023-05-14T13:51:23.203Z,12.21
2023-05-14T13:53:52.037Z,12.23
2023-05-14T13:56:22.654Z,12.01
2023-05-14T13:58:51.140Z,11.96
2023-05-14T14:01:19.466Z,11.98
2023-05-14T14:03:48.400Z,11.82
2023-05-14T14:06:16.630Z,12.05
2023-05-14T14:08:47.514Z,12.27
2023-05-14T14:11:17.826Z,12.01
2023-05-14T14:13:46.833Z,11.88
2023-05-14T14:16:15.515Z,11.98
2023-05-14T14:18:45.574Z,12.03
2023-05-14T14:21:13.636Z,12.04
2023-05-14T14:23:41.667Z,12.05
2023-05-14T14:26:11.422Z,11.86
2023-05-14T14:28:40.327Z,11.80
2023-05-14T14:31:08.542Z,11.96
2023-05-14T14:33:42.924Z,11.89
2023-05-14T14:36:11.703Z,11.94
2023-05-14T14:38:40.113Z,11.86
2023-05-14T14:41:10.253Z,11.96
2023-05-14T14:43:45.275Z,12.06
2023-05-14T14:46:14.038Z,11.96
2023-05-14T14:48:42.531Z,11.92
2023-05-14T14:51:10.849Z,12.00
2023-05-14T14:53:40.398Z,11.72
2023-05-14T14:56:08.743Z,11.94
2023-05-14T14:58:36.953Z,11.89
2023-05-14T15:01:06.845Z,11.83
2023-05-14T15:03:34.929Z,11.81
2023-05-14T15:06:06.201Z,11.86
2023-05-14T15:08:35.624Z,11.55
2023-05-14T15:11:07.479Z,11.73
2023-05-14T15:13:37.457Z,11.81
2023-05-14T15:16:07.754Z,11.64
2023-05-14T15:18:35.952Z,11.71
2023-05-14T15:21:07.181Z,11.57
2023-05-14T15:23:35.304Z,11.38
2023-05-14T15:26:03.412Z,11.62
2023-05-14T15:28:35.000Z,11.71
2023-05-14T15:31:05.301Z,11.54
2023-05-14T15:33:35.074Z,11.61
2023-05-14T15:36:03.039Z,11.50
2023-05-14T15:38:30.990Z,11.51
2023-05-14T15:40:59.072Z,11.53
2023-05-14T15:43:27.152Z,11.58
2023-05-14T15:45:55.198Z,11.62
2023-05-14T15:48:23.177Z,11.62
2023-05-14T15:50:52.901Z,11.56
2023-05-14T15:53:20.952Z,11.59
2023-05-14T15:55:49.395Z,11.53
2023-05-14T15:58:17.444Z,11.59
2023-05-14T16:00:45.417Z,11.54
2023-05-14T16:03:16.029Z,11.52
2023-05-14T16:05:44.964Z,11.55
2023-05-14T16:08:16.777Z,11.52
2023-05-14T16:10:44.680Z,11.44
2023-05-14T16:13:12.763Z,11.41
2023-05-14T16:15:41.034Z,11.41
2023-05-14T16:18:09.085Z,11.36
2023-05-14T16:20:37.065Z,11.40
2023-05-14T16:23:05.586Z,11.38
2023-05-14T16:25:34.919Z,11.09
2023-05-14T16:28:03.001Z,11.40
2023-05-14T16:30:31.087Z,11.29
2023-05-14T16:32:59.116Z,11.19
2023-05-14T16:35:27.125Z,11.19
2023-05-14T16:37:55.484Z,11.10
2023-05-14T16:40:24.293Z,11.24
2023-05-14T16:42:53.831Z,11.09
2023-05-14T16:45:21.938Z,11.15
2023-05-14T16:47:50.129Z,10.90
2023-05-14T16:50:18.260Z,10.94
2023-05-14T16:52:46.346Z,11.06
2023-05-14T16:55:14.416Z,11.10
2023-05-14T16:57:43.828Z,11.06
2023-05-14T17:00:15.311Z,11.17
2023-05-14T17:02:43.204Z,11.13
2023-05-14T17:05:11.517Z,11.04
2023-05-14T17:07:40.022Z,11.06
2023-05-14T17:10:08.654Z,11.00
2023-05-14T17:12:36.729Z,10.84
2023-05-14T17:15:05.913Z,10.84
2023-05-14T17:17:35.435Z,11.04
2023-05-14T17:20:05.950Z,11.08
2023-05-14T17:22:33.951Z,10.98
2023-05-14T17:25:01.971Z,11.10
2023-05-14T17:27:33.208Z,11.07
2023-05-14T17:30:01.372Z,11.06
2023-05-14T17:32:29.726Z,11.01
2023-05-14T17:34:59.240Z,10.92
2023-05-14T17:37:27.475Z,10.99
2023-05-14T17:39:55.574Z,11.01
2023-05-14T17:42:23.766Z,11.00
2023-05-14T17:44:51.942Z,11.00
2023-05-14T17:47:20.691Z,10.76
2023-05-14T17:49:48.870Z,10.86
2023-05-14T17:52:18.405Z,11.02
2023-05-14T17:54:51.455Z,10.96
2023-05-14T17:57:26.729Z,10.96
2023-05-14T18:00:00.901Z,10.86
2023-05-14T18:02:38.321Z,10.63
2023-05-14T18:05:08.291Z,10.91
2023-05-14T18:07:44.726Z,10.73
2023-05-14T18:10:22.822Z,10.93
2023-05-14T18:12:56.100Z,10.78
2023-05-14T18:15:42.109Z,10.88
2023-05-14T18:18:19.461Z,10.95
2023-05-14T18:20:52.723Z,10.72
2023-05-14T18:23:32.561Z,10.70
2023-05-14T18:26:08.894Z,10.92
2023-05-14T18:28:45.812Z,10.73
2023-05-14T18:31:13.860Z,10.97
2023-05-14T18:33:42.053Z,10.93
2023-05-14T18:36:12.395Z,10.81
2023-05-14T18:38:42.003Z,10.92
2023-05-14T18:41:09.983Z,10.98
2023-05-14T18:43:38.061Z,10.77
2023-05-14T18:46:06.579Z,10.86
2023-05-14T18:48:34.762Z,10.77
2023-05-14T18:51:02.828Z,10.76
2023-05-14T18:53:31.488Z,10.77
2023-05-14T18:56:00.994Z,10.72
2023-05-14T18:58:28.875Z,10.54
2023-05-14T19:00:57.880Z,10.39
2023-05-14T19:03:26.304Z,10.45
2023-05-14T19:05:54.913Z,10.31
2023-05-14T19:08:23.089Z,10.45
2023-05-14T19:10:51.290Z,10.55
2023-05-14T19:13:21.025Z,10.45
2023-05-14T19:15:49.174Z,10.62
2023-05-14T19:18:17.703Z,10.61
2023-05-14T19:20:46.734Z,10.58
2023-05-14T19:23:14.651Z,10.61
2023-05-14T19:25:42.536Z,10.58
2023-05-14T19:28:10.633Z,10.77
2023-05-14T19:30:40.457Z,10.58
2023-05-14T19:33:08.565Z,10.78
2023-05-14T19:35:36.803Z,10.68
2023-05-14T19:38:04.767Z,10.72
2023-05-14T19:40:32.687Z,10.73
2023-05-14T19:43:00.594Z,10.79
2023-05-14T19:45:28.591Z,10.81
2023-05-14T19:47:58.407Z,10.83
2023-05-14T19:50:26.464Z,10.66
2023-05-14T19:52:54.455Z,10.77
2023-05-14T19:55:22.651Z,10.63
2023-05-14T19:57:50.750Z,10.72
2023-05-14T20:00:19.074Z,10.64
2023-05-14T20:02:47.968Z,10.75
2023-05-14T20:05:22.921Z,10.77
2023-05-14T20:07:50.951Z,10.66
2023-05-14T20:10:18.951Z,10.57
2023-05-14T20:12:46.943Z,10.66
2023-05-14T20:15:15.030Z,10.50
2023-05-14T20:17:43.184Z,10.51
2023-05-14T20:20:12.135Z,10.55
2023-05-14T20:22:42.886Z,10.55
2023-05-14T20:25:11.196Z,10.57
2023-05-14T20:27:39.298Z,10.56
2023-05-14T20:30:08.568Z,10.33
2023-05-14T20:32:36.633Z,10.50
2023-05-14T20:35:05.206Z,10.48
2023-05-14T20:37:34.014Z,10.37
2023-05-14T20:40:04.991Z,10.59
2023-05-14T20:42:33.042Z,10.52
2023-05-14T20:45:00.978Z,10.57
2023-05-14T20:47:38.018Z,10.63
2023-05-14T20:50:06.874Z,10.43
2023-05-14T20:52:34.825Z,10.76
2023-05-14T20:55:08.743Z,10.78
2023-05-14T20:57:36.874Z,10.77
2023-05-14T21:00:09.951Z,10.70
2023-05-14T21:02:38.912Z,10.61
2023-05-14T21:05:08.264Z,10.77
2023-05-14T21:07:36.570Z,10.78
2023-05-14T21:10:06.349Z,10.76
2023-05-14T21:12:34.251Z,10.80
2023-05-14T21:15:02.334Z,10.80
2023-05-14T21:17:30.578Z,10.78
2023-05-14T21:19:58.631Z,10.64
2023-05-14T21:22:27.753Z,10.63
2023-05-14T21:24:56.852Z,10.66
2023-05-14T21:27:26.361Z,10.67
2023-05-14T21:29:54.625Z,10.79
2023-05-14T21:32:23.983Z,10.77
2023-05-14T21:34:55.173Z,10.86
2023-05-14T21:37:23.335Z,10.89
2023-05-14T21:39:54.037Z,10.85
2023-05-14T21:42:26.761Z,10.85
2023-05-14T21:44:54.818Z,10.84
2023-05-14T21:47:22.789Z,10.83
2023-05-14T21:49:50.759Z,10.83
2023-05-14T21:52:18.776Z,10.74
2023-05-14T21:54:46.680Z,10.70
2023-05-14T21:57:14.876Z,10.70
2023-05-14T21:59:44.206Z,10.75
2023-05-14T22:02:12.219Z,10.79
2023-05-14T22:04:40.836Z,10.72
2023-05-14T22:07:08.773Z,10.62
2023-05-14T22:09:36.977Z,10.72
2023-05-14T22:12:05.838Z,10.69
2023-05-14T22:14:33.743Z,10.75
2023-05-14T22:17:03.107Z,10.87
2023-05-14T22:19:31.112Z,10.86
2023-05-14T22:21:59.117Z,10.84
2023-05-14T22:24:27.194Z,10.79
2023-05-14T22:26:55.092Z,10.69
2023-05-14T22:29:23.066Z,10.74
2023-05-14T22:31:51.100Z,10.81
2023-05-14T22:34:20.697Z,10.82
2023-05-14T22:36:48.696Z,10.73
2023-05-14T22:39:16.644Z,10.65
2023-05-14T22:41:44.539Z,10.75
2023-05-14T22:44:12.448Z,10.71
2023-05-14T22:46:40.892Z,10.72
2023-05-14T22:49:09.194Z,10.82
2023-05-14T22:51:38.741Z,10.87
2023-05-14T22:54:06.788Z,10.68
2023-05-14T22:56:34.758Z,10.72
2023-05-14T22:59:02.999Z,10.75
2023-05-14T23:01:32.638Z,10.71
2023-05-14T23:04:00.659Z,10.61
2023-05-14T23:06:28.739Z,10.71
2023-05-14T23:08:58.019Z,10.70
2023-05-14T23:11:27.401Z,10.63
2023-05-14T23:13:55.803Z,10.61
2023-05-14T23:16:23.860Z,10.61
2023-05-14T23:18:52.800Z,10.73
2023-05-14T23:21:20.825Z,10.82
2023-05-14T23:23:48.838Z,10.75
2023-05-14T23:26:18.378Z,10.70
2023-05-14T23:28:47.456Z,10.79
2023-05-14T23:31:15.488Z,10.68
2023-05-14T23:33:44.655Z,10.73
2023-05-14T23:36:12.731Z,10.73
2023-05-14T23:38:41.090Z,10.78
2023-05-14T23:41:08.990Z,10.79
2023-05-14T23:43:38.246Z,10.73
2023-05-14T23:46:06.295Z,10.74
2023-05-14T23:48:34.280Z,10.75
2023-05-14T23:51:02.229Z,10.62
2023-05-14T23:53:30.153Z,10.62
2023-05-14T23:55:58.131Z,10.52
2023-05-14T23:58:26.469Z,10.52
